sensor_id;sensor_type;location;lat;lon;timestamp;pressure;altitude;pressure_sealevel;temperature;humidity
7407;BME280;3745;56.964;24.128;2024-02-04T00:01:18;99233.28;;;3.31;100.00
7407;BME280;3745;56.964;24.128;2024-02-04T00:03:43;99219.66;;;3.14;100.00
7407;BME280;3745;56.964;24.128;2024-02-04T00:06:09;99251.75;;;3.39;100.00
7407;BME280;3745;56.964;24.128;2024-02-04T00:08:36;99277.69;;;3.46;100.00
7407;BME280;3745;56.964;24.128;2024-02-04T00:11:02;99197.63;;;2.92;100.00
7407;BME280;3745;56.964;24.128;2024-02-04T00:13:30;99273.44;;;3.40;100.00
7407;BME280;3745;56.964;24.128;2024-02-04T00:15:56;99288.44;;;3.40;100.00
7407;BME280;3745;56.964;24.128;2024-02-04T00:18:24;99237.97;;;3.13;100.00
7407;BME280;3745;56.964;24.128;2024-02-04T00:20:50;99232.69;;;2.98;100.00
7407;BME280;3745;56.964;24.128;2024-02-04T00:23:16;99281.38;;;3.18;100.00
7407;BME280;3745;56.964;24.128;2024-02-04T00:25:41;99290.72;;;3.28;100.00
7407;BME280;3745;56.964;24.128;2024-02-04T00:28:07;99293.22;;;3.28;100.00
7407;BME280;3745;56.964;24.128;2024-02-04T00:30:37;99295.72;;;3.28;100.00
7407;BME280;3745;56.964;24.128;2024-02-04T00:33:03;99266.25;;;3.12;100.00
7407;BME280;3745;56.964;24.128;2024-02-04T00:35:29;99306.47;;;3.24;100.00
7407;BME280;3745;56.964;24.128;2024-02-04T00:37:55;99227.50;;;2.86;100.00
7407;BME280;3745;56.964;24.128;2024-02-04T00:40:20;99283.16;;;3.25;100.00
7407;BME280;3745;56.964;24.128;2024-02-04T00:42:46;99286.47;;;3.24;100.00
7407;BME280;3745;56.964;24.128;2024-02-04T00:45:11;99200.75;;;2.82;100.00
7407;BME280;3745;56.964;24.128;2024-02-04T00:47:37;99153.50;;;2.47;100.00
7407;BME280;3745;56.964;24.128;2024-02-04T00:50:03;99268.13;;;3.22;100.00
7407;BME280;3745;56.964;24.128;2024-02-04T00:52:28;99274.88;;;3.26;100.00
7407;BME280;3745;56.964;24.128;2024-02-04T00:54:54;99275.69;;;3.26;100.00
7407;BME280;3745;56.964;24.128;2024-02-04T00:57:19;99285.69;;;3.26;100.00
7407;BME280;3745;56.964;24.128;2024-02-04T00:59:45;99279.81;;;3.23;100.00
7407;BME280;3745;56.964;24.128;2024-02-04T01:02:12;99216.66;;;2.87;100.00
7407;BME280;3745;56.964;24.128;2024-02-04T01:04:38;99269.81;;;3.23;100.00
7407;BME280;3745;56.964;24.128;2024-02-04T01:07:04;99259.88;;;3.26;100.00
7407;BME280;3745;56.964;24.128;2024-02-04T01:09:29;99269.88;;;3.26;100.00
7407;BME280;3745;56.964;24.128;2024-02-04T01:11:55;99255.69;;;3.26;100.00
7407;BME280;3745;56.964;24.128;2024-02-04T01:14:21;99254.94;;;3.29;100.00
7407;BME280;3745;56.964;24.128;2024-02-04T01:16:47;99221.28;;;3.12;100.00
7407;BME280;3745;56.964;24.128;2024-02-04T01:19:12;99240.69;;;3.26;100.00
7407;BME280;3745;56.964;24.128;2024-02-04T01:21:38;99243.22;;;3.28;100.00
7407;BME280;3745;56.964;24.128;2024-02-04T01:24:03;99203.69;;;3.06;100.00
7407;BME280;3745;56.964;24.128;2024-02-04T01:26:29;99208.63;;;3.03;100.00
7407;BME280;3745;56.964;24.128;2024-02-04T01:28:54;99249.97;;;3.32;100.00
7407;BME280;3745;56.964;24.128;2024-02-04T01:31:20;99232.38;;;3.27;100.00
7407;BME280;3745;56.964;24.128;2024-02-04T01:33:46;99202.84;;;3.04;100.00
7407;BME280;3745;56.964;24.128;2024-02-04T01:36:11;99217.25;;;3.18;100.00
7407;BME280;3745;56.964;24.128;2024-02-04T01:38:37;99254.13;;;3.32;100.00
7407;BME280;3745;56.964;24.128;2024-02-04T01:41:03;99156.59;;;2.79;100.00
7407;BME280;3745;56.964;24.128;2024-02-04T01:43:28;99230.75;;;3.28;100.00
7407;BME280;3745;56.964;24.128;2024-02-04T01:45:55;99132.22;;;2.64;100.00
7407;BME280;3745;56.964;24.128;2024-02-04T01:48:21;99223.09;;;3.20;100.00
7407;BME280;3745;56.964;24.128;2024-02-04T01:50:48;99224.88;;;3.26;100.00
7407;BME280;3745;56.964;24.128;2024-02-04T01:53:15;99217.34;;;3.24;100.00
7407;BME280;3745;56.964;24.128;2024-02-04T01:55:43;99214.88;;;3.26;100.00
7407;BME280;3745;56.964;24.128;2024-02-04T01:58:08;99223.25;;;3.28;100.00
7407;BME280;3745;56.964;24.128;2024-02-04T02:00:35;99204.84;;;3.23;100.00
7407;BME280;3745;56.964;24.128;2024-02-04T02:03:04;99203.25;;;3.28;100.00
7407;BME280;3745;56.964;24.128;2024-02-04T02:05:30;99210.03;;;3.35;100.00
7407;BME280;3745;56.964;24.128;2024-02-04T02:07:56;99216.75;;;3.39;100.00
7407;BME280;3745;56.964;24.128;2024-02-04T02:10:22;99118.41;;;2.86;100.00
7407;BME280;3745;56.964;24.128;2024-02-04T02:12:59;99211.84;;;3.45;100.00
7407;BME280;3745;56.964;24.128;2024-02-04T02:15:32;99192.59;;;3.40;100.00
7407;BME280;3745;56.964;24.128;2024-02-04T02:18:11;99186.59;;;3.30;100.00
7407;BME280;3745;56.964;24.128;2024-02-04T02:21:01;99213.69;;;3.55;100.00
7407;BME280;3745;56.964;24.128;2024-02-04T02:23:34;99193.50;;;3.43;100.00
7407;BME280;3745;56.964;24.128;2024-02-04T02:26:03;99191.88;;;3.48;100.00
7407;BME280;3745;56.964;24.128;2024-02-04T02:28:29;99211.22;;;3.57;100.00
7407;BME280;3745;56.964;24.128;2024-02-04T02:30:55;99171.75;;;3.39;100.00
7407;BME280;3745;56.964;24.128;2024-02-04T02:33:20;99168.41;;;3.37;100.00
7407;BME280;3745;56.964;24.128;2024-02-04T02:35:51;99165.00;;;3.32;100.00
7407;BME280;3745;56.964;24.128;2024-02-04T02:39:03;99208.78;;;3.61;100.00
7407;BME280;3745;56.964;24.128;2024-02-04T02:41:29;99183.63;;;3.52;100.00
7407;BME280;3745;56.964;24.128;2024-02-04T02:43:56;99187.06;;;3.60;100.00
7407;BME280;3745;56.964;24.128;2024-02-04T02:46:23;99123.25;;;3.28;100.00
7407;BME280;3745;56.964;24.128;2024-02-04T02:48:49;99189.69;;;3.68;100.00
7407;BME280;3745;56.964;24.128;2024-02-04T02:51:16;99187.13;;;3.63;100.00
7407;BME280;3745;56.964;24.128;2024-02-04T02:53:41;99186.25;;;3.61;100.00
7407;BME280;3745;56.964;24.128;2024-02-04T02:56:08;99123.16;;;3.22;100.00
7407;BME280;3745;56.964;24.128;2024-02-04T02:58:33;99194.72;;;3.69;100.00
7407;BME280;3745;56.964;24.128;2024-02-04T03:00:59;98988.63;;;2.38;100.00
7407;BME280;3745;56.964;24.128;2024-02-04T03:03:24;99148.50;;;3.43;100.00
7407;BME280;3745;56.964;24.128;2024-02-04T03:05:50;99114.97;;;3.29;100.00
7407;BME280;3745;56.964;24.128;2024-02-04T03:08:16;99192.25;;;3.72;100.00
7407;BME280;3745;56.964;24.128;2024-02-04T03:10:42;99163.72;;;3.58;100.00
7407;BME280;3745;56.964;24.128;2024-02-04T03:13:08;99183.13;;;3.74;100.00
7407;BME280;3745;56.964;24.128;2024-02-04T03:15:33;99155.34;;;3.56;100.00
7407;BME280;3745;56.964;24.128;2024-02-04T03:17:59;99124.34;;;3.44;100.00
7407;BME280;3745;56.964;24.128;2024-02-04T03:20:26;99183.16;;;3.77;100.00
7407;BME280;3745;56.964;24.128;2024-02-04T03:22:52;99180.66;;;3.77;100.00
7407;BME280;3745;56.964;24.128;2024-02-04T03:25:19;99177.31;;;3.78;100.00
7407;BME280;3745;56.964;24.128;2024-02-04T03:27:44;99128.63;;;3.54;100.00
7407;BME280;3745;56.964;24.128;2024-02-04T03:30:10;99170.66;;;3.77;100.00
7407;BME280;3745;56.964;24.128;2024-02-04T03:32:37;99127.00;;;3.57;100.00
7407;BME280;3745;56.964;24.128;2024-02-04T03:35:04;99152.41;;;3.84;100.00
7407;BME280;3745;56.964;24.128;2024-02-04T03:37:30;99097.75;;;3.52;100.00
7407;BME280;3745;56.964;24.128;2024-02-04T03:39:55;99158.28;;;3.87;100.00
7407;BME280;3745;56.964;24.128;2024-02-04T03:42:21;99140.72;;;3.83;100.00
7407;BME280;3745;56.964;24.128;2024-02-04T03:44:47;99144.09;;;3.86;100.00
7407;BME280;3745;56.964;24.128;2024-02-04T03:47:13;99136.53;;;3.81;100.00
7407;BME280;3745;56.964;24.128;2024-02-04T03:49:39;99147.38;;;3.84;100.00
7407;BME280;3745;56.964;24.128;2024-02-04T03:52:05;99113.88;;;3.70;100.00
7407;BME280;3745;56.964;24.128;2024-02-04T03:54:31;99136.56;;;3.84;100.00
7407;BME280;3745;56.964;24.128;2024-02-04T03:56:56;99117.22;;;3.72;100.00
7407;BME280;3745;56.964;24.128;2024-02-04T03:59:22;99139.19;;;3.95;100.00
7407;BME280;3745;56.964;24.128;2024-02-04T04:01:51;99083.81;;;3.67;100.00
7407;BME280;3745;56.964;24.128;2024-02-04T04:04:18;99137.53;;;3.94;100.00
7407;BME280;3745;56.964;24.128;2024-02-04T04:06:45;99112.47;;;3.92;100.00
7407;BME280;3745;56.964;24.128;2024-02-04T04:09:11;99120.91;;;3.99;100.00
7407;BME280;3745;56.964;24.128;2024-02-04T04:11:36;99125.06;;;3.97;100.00
7407;BME280;3745;56.964;24.128;2024-02-04T04:14:02;99120.97;;;4.05;100.00
7407;BME280;3745;56.964;24.128;2024-02-04T04:16:28;99131.84;;;4.05;100.00
7407;BME280;3745;56.964;24.128;2024-02-04T04:18:54;99123.53;;;4.09;100.00
7407;BME280;3745;56.964;24.128;2024-02-04T04:21:20;99121.91;;;4.13;100.00
7407;BME280;3745;56.964;24.128;2024-02-04T04:23:46;99124.47;;;4.19;100.00
7407;BME280;3745;56.964;24.128;2024-02-04T04:26:11;99069.13;;;3.95;100.00
7407;BME280;3745;56.964;24.128;2024-02-04T04:28:37;99117.84;;;4.21;100.00
7407;BME280;3745;56.964;24.128;2024-02-04T04:31:02;99101.97;;;4.20;100.00
7407;BME280;3745;56.964;24.128;2024-02-04T04:33:29;99106.19;;;4.24;100.00
7407;BME280;3745;56.964;24.128;2024-02-04T04:35:55;99095.31;;;4.22;100.00
7407;BME280;3745;56.964;24.128;2024-02-04T04:38:20;99106.19;;;4.26;100.00
7407;BME280;3745;56.964;24.128;2024-02-04T04:40:46;99106.31;;;4.35;100.00
7407;BME280;3745;56.964;24.128;2024-02-04T04:43:12;99093.66;;;4.21;100.00
7407;BME280;3745;56.964;24.128;2024-02-04T04:45:38;99116.31;;;4.35;100.00
7407;BME280;3745;56.964;24.128;2024-02-04T04:48:04;99060.22;;;4.15;100.00
7407;BME280;3745;56.964;24.128;2024-02-04T04:50:29;99101.31;;;4.38;100.00
7407;BME280;3745;56.964;24.128;2024-02-04T04:52:55;99082.91;;;4.30;100.00
7407;BME280;3745;56.964;24.128;2024-02-04T04:55:22;99091.31;;;4.38;100.00
7407;BME280;3745;56.964;24.128;2024-02-04T04:57:47;99100.47;;;4.37;100.00
7407;BME280;3745;56.964;24.128;2024-02-04T05:00:13;99094.63;;;4.37;100.00
7407;BME280;3745;56.964;24.128;2024-02-04T05:02:42;99092.91;;;4.30;100.00
7407;BME280;3745;56.964;24.128;2024-02-04T05:05:10;99053.41;;;4.05;100.00
7407;BME280;3745;56.964;24.128;2024-02-04T05:07:37;99086.25;;;4.32;100.00
7407;BME280;3745;56.964;24.128;2024-02-04T05:10:03;99091.19;;;4.26;100.00
7407;BME280;3745;56.964;24.128;2024-02-04T05:12:29;99074.31;;;4.10;100.00
7407;BME280;3745;56.964;24.128;2024-02-04T05:14:55;99079.38;;;4.16;100.00
7407;BME280;3745;56.964;24.128;2024-02-04T05:17:21;99080.19;;;4.12;100.00
7407;BME280;3745;56.964;24.128;2024-02-04T05:19:47;99060.00;;;3.97;100.00
7407;BME280;3745;56.964;24.128;2024-02-04T05:22:13;99062.44;;;3.91;100.00
7407;BME280;3745;56.964;24.128;2024-02-04T05:24:38;99090.94;;;4.05;100.00
7407;BME280;3745;56.964;24.128;2024-02-04T05:27:04;99030.56;;;3.74;100.00
7407;BME280;3745;56.964;24.128;2024-02-04T05:29:31;99085.94;;;4.05;100.00
7407;BME280;3745;56.964;24.128;2024-02-04T05:31:56;99067.59;;;4.03;100.00
7407;BME280;3745;56.964;24.128;2024-02-04T05:34:22;99080.88;;;3.99;100.00
7407;BME280;3745;56.964;24.128;2024-02-04T05:36:47;99038.91;;;3.76;100.00
7407;BME280;3745;56.964;24.128;2024-02-04T05:39:14;99063.31;;;3.96;100.00
7407;BME280;3745;56.964;24.128;2024-02-04T05:41:41;99037.25;;;3.78;100.00
7407;BME280;3745;56.964;24.128;2024-02-04T05:44:13;99042.47;;;3.94;100.00
7407;BME280;3745;56.964;24.128;2024-02-04T05:46:39;99067.50;;;3.97;100.00
7407;BME280;3745;56.964;24.128;2024-02-04T05:49:04;99057.47;;;3.94;100.00
7407;BME280;3745;56.964;24.128;2024-02-04T05:51:40;99064.13;;;3.95;100.00
7407;BME280;3745;56.964;24.128;2024-02-04T05:54:06;99070.81;;;3.96;100.00
7407;BME280;3745;56.964;24.128;2024-02-04T05:56:32;99071.63;;;3.93;100.00
7407;BME280;3745;56.964;24.128;2024-02-04T05:58:58;99040.69;;;3.87;100.00
7407;BME280;3745;56.964;24.128;2024-02-04T06:01:23;99052.31;;;3.84;100.00
7407;BME280;3745;56.964;24.128;2024-02-04T06:03:49;99077.63;;;4.06;100.00
7407;BME280;3745;56.964;24.128;2024-02-04T06:06:15;99062.63;;;4.06;100.00
7407;BME280;3745;56.964;24.128;2024-02-04T06:08:42;99054.16;;;3.98;100.00
7407;BME280;3745;56.964;24.128;2024-02-04T06:11:11;99058.41;;;4.05;100.00
7407;BME280;3745;56.964;24.128;2024-02-04T06:13:42;99041.53;;;3.89;100.00
7407;BME280;3745;56.964;24.128;2024-02-04T06:16:08;99068.28;;;3.94;100.00
7407;BME280;3745;56.964;24.128;2024-02-04T06:18:35;99064.97;;;3.94;100.00
7407;BME280;3745;56.964;24.128;2024-02-04T06:21:03;99050.66;;;3.83;100.00
7407;BME280;3745;56.964;24.128;2024-02-04T06:23:30;99084.19;;;3.98;100.00
7407;BME280;3745;56.964;24.128;2024-02-04T06:25:55;99061.63;;;3.95;100.00
7407;BME280;3745;56.964;24.128;2024-02-04T06:28:21;99058.22;;;3.87;100.00
7407;BME280;3745;56.964;24.128;2024-02-04T06:30:46;99074.22;;;4.01;100.00
7407;BME280;3745;56.964;24.128;2024-02-04T06:33:12;99074.13;;;3.95;100.00
7407;BME280;3745;56.964;24.128;2024-02-04T06:35:37;99094.22;;;4.01;100.00
7407;BME280;3745;56.964;24.128;2024-02-04T06:38:03;99079.16;;;3.95;100.00
7407;BME280;3745;56.964;24.128;2024-02-04T06:40:29;99043.91;;;3.76;100.00
7407;BME280;3745;56.964;24.128;2024-02-04T06:42:54;99087.56;;;4.01;100.00
7407;BME280;3745;56.964;24.128;2024-02-04T06:45:20;99091.75;;;4.02;100.00
7407;BME280;3745;56.964;24.128;2024-02-04T06:47:47;99031.97;;;3.54;100.00
7407;BME280;3745;56.964;24.128;2024-02-04T06:50:12;99089.16;;;3.95;100.00
7407;BME280;3745;56.964;24.128;2024-02-04T06:52:42;99097.56;;;4.00;100.00
7407;BME280;3745;56.964;24.128;2024-02-04T06:55:09;99111.75;;;4.01;100.00
7407;BME280;3745;56.964;24.128;2024-02-04T06:57:35;99047.09;;;3.66;100.00
7407;BME280;3745;56.964;24.128;2024-02-04T07:00:00;99077.41;;;3.88;100.00
7407;BME280;3745;56.964;24.128;2024-02-04T07:02:26;99103.44;;;4.02;100.00
7407;BME280;3745;56.964;24.128;2024-02-04T07:04:52;99109.28;;;4.04;100.00
7407;BME280;3745;56.964;24.128;2024-02-04T07:07:18;99104.28;;;4.04;100.00
7407;BME280;3745;56.964;24.128;2024-02-04T07:09:43;99063.91;;;3.76;100.00
7407;BME280;3745;56.964;24.128;2024-02-04T07:12:09;99095.91;;;4.02;100.00
7407;BME280;3745;56.964;24.128;2024-02-04T07:14:35;99070.59;;;3.77;100.00
7407;BME280;3745;56.964;24.128;2024-02-04T07:17:00;99057.22;;;3.75;100.00
7407;BME280;3745;56.964;24.128;2024-02-04T07:19:27;99031.25;;;3.63;100.00
7407;BME280;3745;56.964;24.128;2024-02-04T07:21:52;99059.00;;;3.82;100.00
7407;BME280;3745;56.964;24.128;2024-02-04T07:24:18;99063.28;;;3.94;100.00
7407;BME280;3745;56.964;24.128;2024-02-04T07:26:45;99114.50;;;4.22;100.00
7407;BME280;3745;56.964;24.128;2024-02-04T07:29:12;99122.84;;;4.21;100.00
7407;BME280;3745;56.964;24.128;2024-02-04T07:31:38;99096.00;;;4.08;100.00
7407;BME280;3745;56.964;24.128;2024-02-04T07:34:04;99116.13;;;4.17;100.00
7407;BME280;3745;56.964;24.128;2024-02-04T07:36:30;99116.97;;;4.17;100.00
7407;BME280;3745;56.964;24.128;2024-02-04T07:38:56;99042.25;;;3.78;100.00
7407;BME280;3745;56.964;24.128;2024-02-04T07:41:21;99116.16;;;4.20;100.00
7407;BME280;3745;56.964;24.128;2024-02-04T07:43:47;99111.16;;;4.20;100.00
7407;BME280;3745;56.964;24.128;2024-02-04T07:46:14;99120.38;;;4.24;100.00
7407;BME280;3745;56.964;24.128;2024-02-04T07:48:39;99077.53;;;3.97;100.00
7407;BME280;3745;56.964;24.128;2024-02-04T07:51:06;99103.50;;;4.09;100.00
7407;BME280;3745;56.964;24.128;2024-02-04T07:53:32;99094.22;;;4.01;100.00
7407;BME280;3745;56.964;24.128;2024-02-04T07:55:57;99027.09;;;3.66;100.00
7407;BME280;3745;56.964;24.128;2024-02-04T07:58:23;99088.44;;;4.05;100.00
7407;BME280;3745;56.964;24.128;2024-02-04T08:00:49;99121.94;;;4.16;100.00
7407;BME280;3745;56.964;24.128;2024-02-04T08:03:14;99119.31;;;4.07;100.00
7407;BME280;3745;56.964;24.128;2024-02-04T08:05:40;99126.03;;;4.08;100.00
7407;BME280;3745;56.964;24.128;2024-02-04T08:08:05;99104.25;;;4.01;100.00
7407;BME280;3745;56.964;24.128;2024-02-04T08:10:31;99123.44;;;4.02;100.00
7407;BME280;3745;56.964;24.128;2024-02-04T08:12:57;99121.75;;;4.01;100.00
7407;BME280;3745;56.964;24.128;2024-02-04T08:15:22;99109.97;;;3.92;100.00
7407;BME280;3745;56.964;24.128;2024-02-04T08:17:48;99128.63;;;4.18;100.00
7407;BME280;3745;56.964;24.128;2024-02-04T08:20:13;99053.97;;;3.82;100.00
7407;BME280;3745;56.964;24.128;2024-02-04T08:22:39;99104.50;;;4.25;100.00
7407;BME280;3745;56.964;24.128;2024-02-04T08:25:05;99091.13;;;4.20;100.00
7407;BME280;3745;56.964;24.128;2024-02-04T08:27:31;99134.72;;;4.40;100.00
7407;BME280;3745;56.964;24.128;2024-02-04T08:29:57;99129.75;;;4.43;100.00
7407;BME280;3745;56.964;24.128;2024-02-04T08:32:22;99131.41;;;4.41;100.00
7407;BME280;3745;56.964;24.128;2024-02-04T08:34:48;99135.59;;;4.42;100.00
7407;BME280;3745;56.964;24.128;2024-02-04T08:37:13;99091.16;;;4.23;100.00
7407;BME280;3745;56.964;24.128;2024-02-04T08:39:39;99136.47;;;4.47;100.00
7407;BME280;3745;56.964;24.128;2024-02-04T08:42:05;99141.50;;;4.47;100.00
7407;BME280;3745;56.964;24.128;2024-02-04T08:44:31;99146.50;;;4.46;100.00
7407;BME280;3745;56.964;24.128;2024-02-04T08:46:56;99091.06;;;4.14;100.00
7407;BME280;3745;56.964;24.128;2024-02-04T08:49:22;99130.53;;;4.36;100.00
7407;BME280;3745;56.964;24.128;2024-02-04T08:51:47;99146.50;;;4.47;100.00
7407;BME280;3745;56.964;24.128;2024-02-04T08:54:13;99092.81;;;4.21;100.00
7407;BME280;3745;56.964;24.128;2024-02-04T08:56:40;99150.66;;;4.47;100.00
7407;BME280;3745;56.964;24.128;2024-02-04T08:59:06;99151.56;;;4.53;100.00
7407;BME280;3745;56.964;24.128;2024-02-04T09:01:32;99145.78;;;4.57;100.00
7407;BME280;3745;56.964;24.128;2024-02-04T09:03:57;99139.97;;;4.63;100.00
7407;BME280;3745;56.964;24.128;2024-02-04T09:06:23;99141.72;;;4.68;100.00
7407;BME280;3745;56.964;24.128;2024-02-04T09:08:48;99142.59;;;4.72;100.00
7407;BME280;3745;56.964;24.128;2024-02-04T09:11:14;99149.34;;;4.80;100.00
7407;BME280;3745;56.964;24.128;2024-02-04T09:13:47;99131.81;;;4.83;100.00
7407;BME280;3745;56.964;24.128;2024-02-04T09:16:12;99118.41;;;4.75;100.00
7407;BME280;3745;56.964;24.128;2024-02-04T09:18:38;99124.22;;;4.74;100.00
7407;BME280;3745;56.964;24.128;2024-02-04T09:21:05;99144.28;;;4.73;100.00
7407;BME280;3745;56.964;24.128;2024-02-04T09:23:32;99145.09;;;4.70;100.00
7407;BME280;3745;56.964;24.128;2024-02-04T09:25:57;99114.03;;;4.56;100.00
7407;BME280;3745;56.964;24.128;2024-02-04T09:28:23;99141.78;;;4.77;100.00
7407;BME280;3745;56.964;24.128;2024-02-04T09:30:49;99149.38;;;4.82;100.00
7407;BME280;3745;56.964;24.128;2024-02-04T09:33:14;99121.78;;;4.80;100.00
7407;BME280;3745;56.964;24.128;2024-02-04T09:35:40;99138.63;;;4.97;100.00
7407;BME280;3745;56.964;24.128;2024-02-04T09:38:06;99135.41;;;5.10;100.00
7407;BME280;3745;56.964;24.128;2024-02-04T09:40:31;99101.03;;;4.92;100.00
7407;BME280;3745;56.964;24.128;2024-02-04T09:42:58;99143.81;;;5.15;100.00
7407;BME280;3745;56.964;24.128;2024-02-04T09:45:26;99129.56;;;5.11;100.00
7407;BME280;3745;56.964;24.128;2024-02-04T09:47:53;99091.84;;;4.99;100.00
7407;BME280;3745;56.964;24.128;2024-02-04T09:50:22;99138.72;;;5.06;100.00
7407;BME280;3745;56.964;24.128;2024-02-04T09:52:50;99109.31;;;4.85;100.00
7407;BME280;3745;56.964;24.128;2024-02-04T09:55:20;99105.94;;;4.81;100.00
7407;BME280;3745;56.964;24.128;2024-02-04T09:57:49;99121.97;;;5.00;100.00
7407;BME280;3745;56.964;24.128;2024-02-04T10:00:18;99126.94;;;4.99;100.00
7407;BME280;3745;56.964;24.128;2024-02-04T10:02:45;99125.25;;;4.95;100.00
7407;BME280;3745;56.964;24.128;2024-02-04T10:05:10;99079.94;;;4.70;100.00
7407;BME280;3745;56.964;24.128;2024-02-04T10:07:36;99125.31;;;5.01;100.00
7407;BME280;3745;56.964;24.128;2024-02-04T10:10:02;99120.31;;;5.04;100.00
7407;BME280;3745;56.964;24.128;2024-02-04T10:12:28;99056.56;;;4.71;100.00
7407;BME280;3745;56.964;24.128;2024-02-04T10:14:54;99092.59;;;4.82;100.00
7407;BME280;3745;56.964;24.128;2024-02-04T10:17:20;99121.91;;;4.96;100.00
7407;BME280;3745;56.964;24.128;2024-02-04T10:19:47;99105.25;;;5.01;100.00
7407;BME280;3745;56.964;24.128;2024-02-04T10:22:14;99115.31;;;5.04;100.00
7407;BME280;3745;56.964;24.128;2024-02-04T10:24:39;99111.97;;;5.05;100.00
7407;BME280;3745;56.964;24.128;2024-02-04T10:27:05;99018.03;;;4.57;100.00
7407;BME280;3745;56.964;24.128;2024-02-04T10:29:31;99105.34;;;5.13;100.00
7407;BME280;3745;56.964;24.128;2024-02-04T10:31:57;99073.44;;;4.89;100.00
7407;BME280;3745;56.964;24.128;2024-02-04T10:34:26;99114.59;;;5.18;100.00
7407;BME280;3745;56.964;24.128;2024-02-04T10:36:52;99105.34;;;5.13;100.00
7407;BME280;3745;56.964;24.128;2024-02-04T10:39:18;99105.41;;;5.22;100.00
7407;BME280;3745;56.964;24.128;2024-02-04T10:41:49;99117.97;;;5.26;100.00
7407;BME280;3745;56.964;24.128;2024-02-04T10:44:22;99111.31;;;5.25;100.00
7407;BME280;3745;56.964;24.128;2024-02-04T10:46:50;99102.94;;;5.26;100.00
7407;BME280;3745;56.964;24.128;2024-02-04T10:49:18;99122.22;;;5.33;100.00
7407;BME280;3745;56.964;24.128;2024-02-04T10:51:45;99067.69;;;5.08;100.00
7407;BME280;3745;56.964;24.128;2024-02-04T10:54:14;99093.69;;;5.21;100.00
7407;BME280;3745;56.964;24.128;2024-02-04T10:56:45;99113.06;;;5.37;100.00
7407;BME280;3745;56.964;24.128;2024-02-04T10:59:14;99056.81;;;5.05;100.00
7407;BME280;3745;56.964;24.128;2024-02-04T11:01:43;99102.19;;;5.35;100.00
7407;BME280;3745;56.964;24.128;2024-02-04T11:04:11;99081.25;;;5.33;100.00
7407;BME280;3745;56.964;24.128;2024-02-04T11:06:42;99098.88;;;5.45;100.00
7407;BME280;3745;56.964;24.128;2024-02-04T11:09:09;99071.22;;;5.31;100.00
7407;BME280;3745;56.964;24.128;2024-02-04T11:11:39;99075.47;;;5.43;100.00
7407;BME280;3745;56.964;24.128;2024-02-04T11:14:10;99053.66;;;5.30;100.00
7407;BME280;3745;56.964;24.128;2024-02-04T11:25:02;99099.66;;;5.33;100.00
7407;BME280;3745;56.964;24.128;2024-02-04T11:27:33;99092.13;;;5.32;100.00
7407;BME280;3745;56.964;24.128;2024-02-04T11:29:59;99085.50;;;5.43;100.00
7407;BME280;3745;56.964;24.128;2024-02-04T11:32:24;99070.34;;;5.28;100.00
7407;BME280;3745;56.964;24.128;2024-02-04T11:34:53;99095.50;;;5.40;100.00
7407;BME280;3745;56.964;24.128;2024-02-04T11:37:20;99078.75;;;5.33;100.00
7407;BME280;3745;56.964;24.128;2024-02-04T11:39:53;99033.53;;;5.16;100.00
7407;BME280;3745;56.964;24.128;2024-02-04T11:42:22;99065.41;;;5.40;100.00
7407;BME280;3745;56.964;24.128;2024-02-04T11:44:48;99083.75;;;5.33;100.00
7407;BME280;3745;56.964;24.128;2024-02-04T11:47:26;99083.75;;;5.33;100.00
7407;BME280;3745;56.964;24.128;2024-02-04T11:49:58;99088.72;;;5.27;100.00
7407;BME280;3745;56.964;24.128;2024-02-04T11:52:27;99087.91;;;5.25;100.00
7407;BME280;3745;56.964;24.128;2024-02-04T11:54:52;99077.84;;;5.23;100.00
7407;BME280;3745;56.964;24.128;2024-02-04T11:57:19;99085.38;;;5.22;100.00
7407;BME280;3745;56.964;24.128;2024-02-04T11:59:46;99055.19;;;5.10;100.00
7407;BME280;3745;56.964;24.128;2024-02-04T12:02:13;99078.72;;;5.30;100.00
7407;BME280;3745;56.964;24.128;2024-02-04T12:04:41;99060.34;;;5.28;100.00
7407;BME280;3745;56.964;24.128;2024-02-04T12:07:08;99080.47;;;5.40;100.00
7407;BME280;3745;56.964;24.128;2024-02-04T12:09:35;99079.69;;;5.47;100.00
7407;BME280;3745;56.964;24.128;2024-02-04T12:12:01;99065.50;;;5.52;100.00
7407;BME280;3745;56.964;24.128;2024-02-04T12:14:28;99026.94;;;5.35;100.00
7407;BME280;3745;56.964;24.128;2024-02-04T12:16:56;99070.56;;;5.64;100.00
7407;BME280;3745;56.964;24.128;2024-02-04T12:19:25;99066.38;;;5.65;100.00
7407;BME280;3745;56.964;24.128;2024-02-04T12:21:50;99001.84;;;5.29;100.00
7407;BME280;3745;56.964;24.128;2024-02-04T12:24:16;99060.53;;;5.64;100.00
7407;BME280;3745;56.964;24.128;2024-02-04T12:26:42;99072.28;;;5.68;100.00
7407;BME280;3745;56.964;24.128;2024-02-04T12:29:12;99059.69;;;5.62;100.00
7407;BME280;3745;56.964;24.128;2024-02-04T12:31:37;99057.16;;;5.56;100.00
7407;BME280;3745;56.964;24.128;2024-02-04T12:34:03;99072.28;;;5.68;100.00
7407;BME280;3745;56.964;24.128;2024-02-04T12:36:32;99068.06;;;5.67;100.00
7407;BME280;3745;56.964;24.128;2024-02-04T12:39:02;99067.22;;;5.65;100.00
7407;BME280;3745;56.964;24.128;2024-02-04T12:41:28;99068.88;;;5.63;100.00
7407;BME280;3745;56.964;24.128;2024-02-04T12:43:56;99048.75;;;5.54;100.00
7407;BME280;3745;56.964;24.128;2024-02-04T12:46:22;99061.38;;;5.66;100.00
7407;BME280;3745;56.964;24.128;2024-02-04T12:48:56;99058.00;;;5.60;100.00
7407;BME280;3745;56.964;24.128;2024-02-04T12:51:26;99049.53;;;5.38;100.00
7407;BME280;3745;56.964;24.128;2024-02-04T12:54:12;99046.19;;;5.37;100.00
7407;BME280;3745;56.964;24.128;2024-02-04T12:56:54;99053.69;;;5.36;100.00
7407;BME280;3745;56.964;24.128;2024-02-04T12:59:33;99057.06;;;5.41;100.00
7407;BME280;3745;56.964;24.128;2024-02-04T13:02:01;99036.94;;;5.29;100.00
7407;BME280;3745;56.964;24.128;2024-02-04T13:04:36;99052.91;;;5.43;100.00
7407;BME280;3745;56.964;24.128;2024-02-04T13:07:06;99057.06;;;5.41;100.00
7407;BME280;3745;56.964;24.128;2024-02-04T13:09:32;99010.06;;;5.10;100.00
7407;BME280;3745;56.964;24.128;2024-02-04T13:12:06;99043.59;;;5.27;100.00
7407;BME280;3745;56.964;24.128;2024-02-04T13:14:34;99032.72;;;5.22;100.00
7407;BME280;3745;56.964;24.128;2024-02-04T13:17:00;98991.56;;;4.92;100.00